createdAt,value
2017-08-29T00:01:50.284Z,14.60
2017-08-29T00:04:17.744Z,14.60
2017-08-29T00:06:45.220Z,14.50
2017-08-29T00:09:12.680Z,14.40
2017-08-29T00:11:40.160Z,14.30
2017-08-29T00:14:07.619Z,14.20
2017-08-29T00:16:35.092Z,14.20
2017-08-29T00:19:02.564Z,14.10
2017-08-29T00:21:30.019Z,14.10
2017-08-29T00:23:57.487Z,14.00
2017-08-29T00:26:24.957Z,13.90
2017-08-29T00:28:52.423Z,13.90
2017-08-29T00:31:19.887Z,14.00
2017-08-29T00:33:47.363Z,14.00
2017-08-29T00:36:14.822Z,14.00
2017-08-29T00:38:42.305Z,14.00
2017-08-29T00:41:09.772Z,14.00
2017-08-29T00:43:37.235Z,14.00
2017-08-29T00:46:04.699Z,14.00
2017-08-29T00:48:35.563Z,14.00
2017-08-29T00:51:03.332Z,14.00
2017-08-29T00:53:30.827Z,14.10
2017-08-29T00:55:58.573Z,14.00
2017-08-29T00:58:26.583Z,14.00
2017-08-29T01:00:54.037Z,14.00
2017-08-29T01:03:21.729Z,13.90
2017-08-29T01:05:49.192Z,13.90
2017-08-29T01:08:16.655Z,13.90
2017-08-29T01:10:44.131Z,13.90
2017-08-29T01:13:11.593Z,13.90
2017-08-29T01:15:39.069Z,13.80
2017-08-29T01:18:06.540Z,13.80
2017-08-29T01:20:34.012Z,13.80
2017-08-29T01:23:01.485Z,13.70
2017-08-29T01:25:29.720Z,13.50
2017-08-29T01:27:57.184Z,13.50
2017-08-29T01:30:24.699Z,13.50
2017-08-29T01:32:52.177Z,13.50
2017-08-29T01:35:19.653Z,13.50
2017-08-29T01:37:47.490Z,13.40
2017-08-29T01:40:14.962Z,13.40
2017-08-29T01:42:42.424Z,13.40
2017-08-29T01:45:09.900Z,13.50
2017-08-29T01:47:37.364Z,13.50
2017-08-29T01:50:04.837Z,13.40
2017-08-29T01:52:32.301Z,13.50
2017-08-29T01:54:59.776Z,13.50
2017-08-29T01:57:27.241Z,13.50
2017-08-29T01:59:54.721Z,13.50
2017-08-29T02:02:22.188Z,13.50
2017-08-29T02:04:49.652Z,13.50
2017-08-29T02:07:17.128Z,13.50
2017-08-29T02:09:44.596Z,13.50
2017-08-29T02:12:12.063Z,13.60
2017-08-29T02:14:39.528Z,13.60
2017-08-29T02:17:07.007Z,13.60
2017-08-29T02:19:34.467Z,13.60
2017-08-29T02:22:01.940Z,13.60
2017-08-29T02:24:29.404Z,13.60
2017-08-29T02:26:56.876Z,13.60
2017-08-29T02:29:24.340Z,13.60
2017-08-29T02:31:51.816Z,13.50
2017-08-29T02:34:19.281Z,13.50
2017-08-29T02:36:46.751Z,13.50
2017-08-29T02:39:14.213Z,13.50
2017-08-29T02:41:41.684Z,13.50
2017-08-29T02:44:09.149Z,13.50
2017-08-29T02:46:36.624Z,13.50
2017-08-29T02:49:04.393Z,13.50
2017-08-29T02:51:31.857Z,13.50
2017-08-29T02:53:59.324Z,13.50
2017-08-29T02:56:26.779Z,13.50
2017-08-29T02:58:54.243Z,13.50
2017-08-29T03:01:21.712Z,13.40
2017-08-29T03:03:49.179Z,13.40
2017-08-29T03:06:16.643Z,13.40
2017-08-29T03:08:44.110Z,13.40
2017-08-29T03:11:11.575Z,13.40
2017-08-29T03:13:39.044Z,13.40
2017-08-29T03:16:06.508Z,13.40
2017-08-29T03:18:33.982Z,13.40
2017-08-29T03:21:01.439Z,13.40
2017-08-29T03:23:28.907Z,13.40
2017-08-29T03:25:56.376Z,13.40
2017-08-29T03:28:23.852Z,13.30
2017-08-29T03:30:51.312Z,13.30
2017-08-29T03:33:18.774Z,13.40
2017-08-29T03:35:46.232Z,13.40
2017-08-29T03:38:13.701Z,13.30
2017-08-29T03:40:41.158Z,13.30
2017-08-29T03:43:08.639Z,13.40
2017-08-29T03:45:36.100Z,13.30
2017-08-29T03:48:09.537Z,13.30
2017-08-29T03:50:36.999Z,13.30
2017-08-29T03:53:04.457Z,13.40
2017-08-29T03:55:31.937Z,13.40
2017-08-29T03:57:59.396Z,13.30
2017-08-29T04:00:26.867Z,13.30
2017-08-29T04:02:54.322Z,13.30
2017-08-29T04:05:21.796Z,13.30
2017-08-29T04:07:49.254Z,13.30
2017-08-29T04:10:16.724Z,13.30
2017-08-29T04:12:44.194Z,13.30
2017-08-29T04:15:11.664Z,13.30
2017-08-29T04:17:39.124Z,13.30
2017-08-29T04:20:06.602Z,13.20
2017-08-29T04:22:34.069Z,13.20
2017-08-29T04:25:01.539Z,13.30
2017-08-29T04:27:28.998Z,13.30
2017-08-29T04:29:56.468Z,13.20
2017-08-29T04:32:23.923Z,13.20
2017-08-29T04:34:52.161Z,13.30
2017-08-29T04:37:19.615Z,13.20
2017-08-29T04:39:47.095Z,13.30
2017-08-29T04:42:14.555Z,13.30
2017-08-29T04:44:42.028Z,13.30
2017-08-29T04:47:09.500Z,13.20
2017-08-29T04:49:36.960Z,13.20
2017-08-29T04:52:04.432Z,13.20
2017-08-29T04:54:31.892Z,13.10
2017-08-29T04:56:59.363Z,13.10
2017-08-29T04:59:26.829Z,13.10
2017-08-29T05:01:54.299Z,13.10
2017-08-29T05:04:21.761Z,13.10
2017-08-29T05:06:49.227Z,13.00
2017-08-29T05:09:16.687Z,13.00
2017-08-29T05:11:44.160Z,13.10
2017-08-29T05:14:11.627Z,13.10
2017-08-29T05:16:39.103Z,13.10
2017-08-29T05:21:44.915Z,13.20
2017-08-29T05:24:12.375Z,13.20
2017-08-29T05:26:39.852Z,13.30
2017-08-29T05:29:07.320Z,13.30
2017-08-29T05:31:34.795Z,13.30
2017-08-29T05:34:02.258Z,13.30
2017-08-29T05:36:29.748Z,13.40
2017-08-29T05:38:57.208Z,13.40
2017-08-29T05:41:24.682Z,13.40
2017-08-29T05:43:52.153Z,13.50
2017-08-29T05:46:19.615Z,13.50
2017-08-29T05:48:47.096Z,13.60
2017-08-29T05:51:14.564Z,13.60
2017-08-29T05:53:42.364Z,13.70
2017-08-29T05:56:09.818Z,13.80
2017-08-29T05:58:37.342Z,13.90
2017-08-29T06:01:05.576Z,14.10
2017-08-29T06:03:33.063Z,14.10
2017-08-29T06:06:00.612Z,14.20
2017-08-29T06:08:28.082Z,14.30
2017-08-29T06:10:56.552Z,14.40
2017-08-29T06:13:24.277Z,14.50
2017-08-29T06:15:51.736Z,14.60
2017-08-29T06:18:19.198Z,14.70
2017-08-29T06:20:46.655Z,14.90
2017-08-29T06:23:14.144Z,15.00
2017-08-29T06:25:41.616Z,15.20
2017-08-29T06:28:09.083Z,15.30
2017-08-29T06:30:36.556Z,15.50
2017-08-29T06:33:04.794Z,15.80
2017-08-29T06:35:32.267Z,15.70
2017-08-29T06:37:59.723Z,15.90
2017-08-29T06:40:27.228Z,16.10
2017-08-29T06:42:54.688Z,16.20
2017-08-29T06:45:22.439Z,16.40
2017-08-29T06:47:49.902Z,16.50
2017-08-29T06:50:17.368Z,16.80
2017-08-29T06:52:44.827Z,16.90
2017-08-29T06:55:12.303Z,17.00
2017-08-29T06:57:39.771Z,17.30
2017-08-29T07:00:07.240Z,17.50
2017-08-29T07:02:34.705Z,17.70
2017-08-29T07:05:02.176Z,17.90
2017-08-29T07:07:29.631Z,18.00
2017-08-29T07:09:57.109Z,18.30
2017-08-29T07:12:25.330Z,18.60
2017-08-29T07:14:52.817Z,18.60
2017-08-29T07:17:20.284Z,18.80
2017-08-29T07:19:47.743Z,19.00
2017-08-29T07:22:15.219Z,19.10
2017-08-29T07:24:42.679Z,19.30
2017-08-29T07:27:10.151Z,19.40
2017-08-29T07:29:37.618Z,19.50
2017-08-29T07:32:05.095Z,19.80
2017-08-29T07:34:32.556Z,20.00
2017-08-29T07:37:00.036Z,20.10
2017-08-29T07:39:27.500Z,20.20
2017-08-29T07:41:54.964Z,20.50
2017-08-29T07:44:22.429Z,20.70
2017-08-29T07:46:49.899Z,20.80
2017-08-29T07:49:17.361Z,21.00
2017-08-29T07:51:44.836Z,21.20
2017-08-29T07:54:12.313Z,21.30
2017-08-29T07:56:39.787Z,21.40
2017-08-29T07:59:07.256Z,21.50
2017-08-29T08:01:34.732Z,21.60
2017-08-29T08:04:02.188Z,21.80
2017-08-29T08:06:29.646Z,22.10
2017-08-29T08:08:57.119Z,22.30
2017-08-29T08:11:24.584Z,22.50
2017-08-29T08:13:52.054Z,22.70
2017-08-29T08:16:19.512Z,22.90
2017-08-29T08:18:46.987Z,23.10
2017-08-29T08:21:14.453Z,23.20
2017-08-29T08:23:41.924Z,23.40
2017-08-29T08:26:09.379Z,23.50
2017-08-29T08:28:36.858Z,23.60
2017-08-29T08:31:04.321Z,23.80
2017-08-29T08:33:31.791Z,24.00
2017-08-29T08:35:59.251Z,24.10
2017-08-29T08:38:26.727Z,24.30
2017-08-29T08:40:54.197Z,24.50
2017-08-29T08:43:21.669Z,24.70
2017-08-29T08:45:49.131Z,24.80
2017-08-29T08:48:16.603Z,24.90
2017-08-29T08:50:44.067Z,25.20
2017-08-29T08:53:11.548Z,25.50
2017-08-29T08:55:39.003Z,25.70
2017-08-29T08:58:06.478Z,25.80
2017-08-29T09:00:33.936Z,25.90
2017-08-29T09:03:01.411Z,25.90
2017-08-29T09:05:28.885Z,25.90
2017-08-29T09:07:56.352Z,25.90
2017-08-29T09:10:23.824Z,26.00
2017-08-29T09:12:51.300Z,26.30
2017-08-29T09:15:18.765Z,26.30
2017-08-29T09:17:46.244Z,26.50
2017-08-29T09:20:13.704Z,26.70
2017-08-29T09:22:41.169Z,26.90
2017-08-29T09:25:08.643Z,27.00
2017-08-29T09:27:36.116Z,27.20
2017-08-29T09:30:03.591Z,27.40
2017-08-29T09:32:31.056Z,27.70
2017-08-29T09:34:58.531Z,27.80
2017-08-29T09:37:25.994Z,28.20
2017-08-29T09:39:53.468Z,28.20
2017-08-29T09:42:20.923Z,28.40
2017-08-29T09:44:48.407Z,28.30
2017-08-29T09:47:15.865Z,28.30
2017-08-29T09:49:43.337Z,28.30
2017-08-29T09:52:10.803Z,28.60
2017-08-29T09:54:38.270Z,28.60
2017-08-29T09:57:05.727Z,28.60
2017-08-29T09:59:33.210Z,28.70
2017-08-29T10:02:00.680Z,29.00
2017-08-29T10:04:28.152Z,29.40
2017-08-29T10:06:55.619Z,29.30
2017-08-29T10:09:23.091Z,29.10
2017-08-29T10:11:50.558Z,29.10
2017-08-29T10:14:18.028Z,29.20
2017-08-29T10:16:45.489Z,29.00
2017-08-29T10:19:12.957Z,29.00
2017-08-29T10:21:40.422Z,29.20
2017-08-29T10:24:07.899Z,29.40
2017-08-29T10:26:35.367Z,29.50
2017-08-29T10:29:02.836Z,29.70
2017-08-29T10:31:30.300Z,29.60
2017-08-29T10:33:57.775Z,29.50
2017-08-29T10:36:25.248Z,29.70
2017-08-29T10:38:52.720Z,29.80
2017-08-29T10:41:20.201Z,29.80
2017-08-29T10:43:47.655Z,29.90
2017-08-29T10:46:15.134Z,30.10
2017-08-29T10:48:42.586Z,30.00
2017-08-29T10:51:10.907Z,30.10
2017-08-29T10:53:38.695Z,29.90
2017-08-29T10:56:06.167Z,30.00
2017-08-29T10:58:33.625Z,30.20
2017-08-29T11:01:01.086Z,30.30
2017-08-29T11:03:28.560Z,30.20
2017-08-29T11:06:01.678Z,30.30
2017-08-29T11:08:29.145Z,30.20
2017-08-29T11:10:56.620Z,30.30
2017-08-29T11:13:24.502Z,30.70
2017-08-29T11:15:51.967Z,30.90
2017-08-29T11:18:19.427Z,31.10
2017-08-29T11:20:46.900Z,31.20
2017-08-29T11:23:14.359Z,31.40
2017-08-29T11:25:41.835Z,31.40
2017-08-29T11:28:09.299Z,31.50
2017-08-29T11:30:36.779Z,31.50
2017-08-29T11:33:04.239Z,31.40
2017-08-29T11:35:31.709Z,31.20
2017-08-29T11:37:59.176Z,31.40
2017-08-29T11:40:26.651Z,31.40
2017-08-29T11:42:54.120Z,31.10
2017-08-29T11:45:21.583Z,31.30
2017-08-29T11:47:49.052Z,31.50
2017-08-29T11:50:16.508Z,31.60
2017-08-29T11:52:43.991Z,31.70
2017-08-29T11:55:11.455Z,31.50
2017-08-29T11:57:38.931Z,31.30
2017-08-29T12:00:06.404Z,31.20
2017-08-29T12:02:33.868Z,30.90
2017-08-29T12:05:01.332Z,30.90
2017-08-29T12:07:28.804Z,30.60
2017-08-29T12:09:56.267Z,30.50
2017-08-29T12:12:23.747Z,30.70
2017-08-29T12:14:51.214Z,30.70
2017-08-29T12:17:18.683Z,30.70
2017-08-29T12:19:46.156Z,30.90
2017-08-29T12:22:13.636Z,31.10
2017-08-29T12:24:41.103Z,31.40
2017-08-29T12:27:08.563Z,31.50
2017-08-29T12:29:36.039Z,31.50
2017-08-29T12:32:03.501Z,31.50
2017-08-29T12:34:30.975Z,31.70
2017-08-29T12:36:58.429Z,31.60
2017-08-29T12:39:25.904Z,31.60
2017-08-29T12:41:53.360Z,31.80
2017-08-29T12:44:20.836Z,31.90
2017-08-29T12:46:48.299Z,32.00
2017-08-29T12:49:16.529Z,31.70
2017-08-29T12:51:44.001Z,31.70
2017-08-29T12:54:11.471Z,31.90
2017-08-29T12:56:38.934Z,31.80
2017-08-29T12:59:06.408Z,31.70
2017-08-29T13:01:33.868Z,31.70
2017-08-29T13:04:01.351Z,31.80
2017-08-29T13:06:28.812Z,32.00
2017-08-29T13:08:56.287Z,32.10
2017-08-29T13:11:23.748Z,32.00
2017-08-29T13:13:51.261Z,32.10
2017-08-29T13:16:18.724Z,32.30
2017-08-29T13:18:46.183Z,32.30
2017-08-29T13:21:13.658Z,32.30
2017-08-29T13:23:41.125Z,32.30
2017-08-29T13:26:08.594Z,31.90
2017-08-29T13:28:36.060Z,31.80
2017-08-29T13:31:03.536Z,31.90
2017-08-29T13:33:31.022Z,32.00
2017-08-29T13:35:58.480Z,31.90
2017-08-29T13:38:25.941Z,31.90
2017-08-29T13:40:53.412Z,31.90
2017-08-29T13:43:20.876Z,31.90
2017-08-29T13:45:48.356Z,31.80
2017-08-29T13:48:15.811Z,32.00
2017-08-29T13:50:43.289Z,31.70
2017-08-29T13:53:10.752Z,31.80
2017-08-29T13:55:38.223Z,31.90
2017-08-29T13:58:05.692Z,31.90
2017-08-29T14:00:33.161Z,31.80
2017-08-29T14:03:00.620Z,31.50
2017-08-29T14:05:28.092Z,31.50
2017-08-29T14:07:58.558Z,31.10
2017-08-29T14:10:26.023Z,31.00
2017-08-29T14:12:53.487Z,30.90
2017-08-29T14:15:20.954Z,31.10
2017-08-29T14:17:48.418Z,31.30
2017-08-29T14:20:15.886Z,31.50
2017-08-29T14:22:43.359Z,31.70
2017-08-29T14:25:10.835Z,31.80
2017-08-29T14:27:38.299Z,31.80
2017-08-29T14:30:05.784Z,31.80
2017-08-29T14:32:33.231Z,31.80
2017-08-29T14:35:00.717Z,31.60
2017-08-29T14:37:28.177Z,31.60
2017-08-29T14:39:59.492Z,31.60
2017-08-29T14:42:26.950Z,31.80
2017-08-29T14:44:54.424Z,31.70
2017-08-29T14:47:33.855Z,31.80
2017-08-29T14:50:01.347Z,31.90
2017-08-29T14:52:28.800Z,32.20
2017-08-29T14:54:56.271Z,32.20
2017-08-29T14:57:23.743Z,32.20
2017-08-29T14:59:51.976Z,31.90
2017-08-29T15:02:19.439Z,31.90
2017-08-29T15:04:46.912Z,31.50
2017-08-29T15:07:14.376Z,31.40
2017-08-29T15:09:41.852Z,31.40
2017-08-29T15:12:09.319Z,31.50
2017-08-29T15:14:36.811Z,31.50
2017-08-29T15:17:04.272Z,31.40
2017-08-29T15:19:31.735Z,31.50
2017-08-29T15:21:59.208Z,31.20
2017-08-29T15:24:26.670Z,31.10
2017-08-29T15:26:54.140Z,31.00
2017-08-29T15:29:21.603Z,31.10
2017-08-29T15:31:49.075Z,31.10
2017-08-29T15:34:16.545Z,31.10
2017-08-29T15:36:44.777Z,31.10
2017-08-29T15:39:12.240Z,31.00
2017-08-29T15:41:39.710Z,31.10
2017-08-29T15:44:07.172Z,31.20
2017-08-29T15:46:34.635Z,31.20
2017-08-29T15:49:02.101Z,31.20
2017-08-29T15:51:29.572Z,31.10
2017-08-29T15:53:57.032Z,30.90
2017-08-29T15:56:24.519Z,30.80
2017-08-29T15:58:51.997Z,30.80
2017-08-29T16:01:19.455Z,30.90
2017-08-29T16:03:46.936Z,30.80
2017-08-29T16:06:14.753Z,30.70
2017-08-29T16:08:42.219Z,30.50
2017-08-29T16:11:09.684Z,30.40
2017-08-29T16:13:37.156Z,30.40
2017-08-29T16:16:04.623Z,30.40
2017-08-29T16:18:32.088Z,30.30
2017-08-29T16:20:59.543Z,30.20
2017-08-29T16:23:27.026Z,30.20
2017-08-29T16:25:54.488Z,30.10
2017-08-29T16:28:21.959Z,30.00
2017-08-29T16:30:49.425Z,29.80
2017-08-29T16:33:16.903Z,29.60
2017-08-29T16:35:44.372Z,29.40
2017-08-29T16:38:11.841Z,29.20
2017-08-29T16:40:39.304Z,29.20
2017-08-29T16:43:06.780Z,29.00
2017-08-29T16:45:34.239Z,28.80
2017-08-29T16:48:01.704Z,28.70
2017-08-29T16:50:29.159Z,28.60
2017-08-29T16:52:56.636Z,28.50
2017-08-29T16:55:24.101Z,28.40
2017-08-29T16:57:51.588Z,28.40
2017-08-29T17:00:19.060Z,28.30
2017-08-29T17:02:46.533Z,28.10
2017-08-29T17:05:14.001Z,27.90
2017-08-29T17:07:41.463Z,27.80
2017-08-29T17:10:08.925Z,27.70
2017-08-29T17:12:36.387Z,27.60
2017-08-29T17:15:03.859Z,27.60
2017-08-29T17:17:32.090Z,27.50
2017-08-29T17:19:59.551Z,27.50
2017-08-29T17:22:27.027Z,27.50
2017-08-29T17:24:54.500Z,27.50
2017-08-29T17:27:21.975Z,27.60
2017-08-29T17:29:50.207Z,27.50
2017-08-29T17:32:17.679Z,27.50
2017-08-29T17:34:45.167Z,27.50
2017-08-29T17:37:12.632Z,27.50
2017-08-29T17:39:40.111Z,27.50
2017-08-29T17:42:07.588Z,27.30
2017-08-29T17:44:35.055Z,27.00
2017-08-29T17:47:02.540Z,26.80
2017-08-29T17:49:30.000Z,26.60
2017-08-29T17:51:57.471Z,26.30
2017-08-29T17:54:25.696Z,25.90
2017-08-29T17:56:53.172Z,25.90
2017-08-29T17:59:20.627Z,25.90
2017-08-29T18:01:48.104Z,25.80
2017-08-29T18:04:15.574Z,25.70
2017-08-29T18:06:43.038Z,25.60
2017-08-29T18:09:10.513Z,25.60
2017-08-29T18:11:37.975Z,25.50
2017-08-29T18:14:05.436Z,25.50
2017-08-29T18:16:32.903Z,25.40
2017-08-29T18:19:00.368Z,25.30
2017-08-29T18:21:27.848Z,25.30
2017-08-29T18:23:55.323Z,25.20
2017-08-29T18:26:22.800Z,25.10
2017-08-29T18:28:50.260Z,24.90
2017-08-29T18:31:18.495Z,24.50
2017-08-29T18:33:45.954Z,24.50
2017-08-29T18:36:13.431Z,24.20
2017-08-29T18:38:40.896Z,24.10
2017-08-29T18:41:08.363Z,24.00
2017-08-29T18:43:35.825Z,24.00
2017-08-29T18:46:03.300Z,23.90
2017-08-29T18:48:30.760Z,23.90
2017-08-29T18:50:58.235Z,23.70
2017-08-29T18:53:25.702Z,23.70
2017-08-29T18:55:53.181Z,23.60
2017-08-29T18:58:20.640Z,23.50
2017-08-29T19:00:48.127Z,23.40
2017-08-29T19:03:15.584Z,23.40
2017-08-29T19:05:43.056Z,23.40
2017-08-29T19:08:10.519Z,23.30
2017-08-29T19:10:37.999Z,23.30
2017-08-29T19:13:05.460Z,23.20
2017-08-29T19:15:32.932Z,23.10
2017-08-29T19:18:00.402Z,23.10
2017-08-29T19:20:27.880Z,23.00
2017-08-29T19:22:55.343Z,23.00
2017-08-29T19:25:22.807Z,22.90
2017-08-29T19:27:50.275Z,22.80
2017-08-29T19:30:17.745Z,22.80
2017-08-29T19:32:45.216Z,22.70
2017-08-29T19:35:12.675Z,22.60
2017-08-29T19:37:40.156Z,22.50
2017-08-29T19:40:07.628Z,22.40
2017-08-29T19:42:35.115Z,22.30
2017-08-29T19:45:02.587Z,22.20
2017-08-29T19:47:30.827Z,21.80
2017-08-29T19:49:58.312Z,21.80
2017-08-29T19:52:25.817Z,21.70
2017-08-29T19:54:53.398Z,21.50
2017-08-29T19:57:20.948Z,21.50
2017-08-29T19:59:48.411Z,21.40
2017-08-29T20:02:15.892Z,21.50
2017-08-29T20:04:43.363Z,21.40
2017-08-29T20:07:10.839Z,21.20
2017-08-29T20:09:39.075Z,21.10
2017-08-29T20:12:06.656Z,21.00
2017-08-29T20:14:34.126Z,21.00
2017-08-29T20:17:01.595Z,21.00
2017-08-29T20:19:29.068Z,21.00
2017-08-29T20:21:56.548Z,21.00
2017-08-29T20:24:24.024Z,20.90
2017-08-29T20:26:51.491Z,20.90
2017-08-29T20:29:18.967Z,20.90
2017-08-29T20:31:46.437Z,20.90
2017-08-29T20:34:13.911Z,20.80
2017-08-29T20:36:41.380Z,20.80
2017-08-29T20:39:08.856Z,20.80
2017-08-29T20:41:36.323Z,20.80
2017-08-29T20:44:03.810Z,20.80
2017-08-29T20:46:31.270Z,20.70
2017-08-29T20:48:58.756Z,20.50
2017-08-29T20:51:26.223Z,20.50
2017-08-29T20:53:53.705Z,20.50
2017-08-29T20:56:21.175Z,20.50
2017-08-29T20:58:48.667Z,20.40
2017-08-29T21:01:16.122Z,20.40
2017-08-29T21:03:43.620Z,20.40
2017-08-29T21:06:11.100Z,20.40
2017-08-29T21:08:38.564Z,20.30
2017-08-29T21:11:06.041Z,20.30
2017-08-29T21:13:33.513Z,20.30
2017-08-29T21:16:00.989Z,20.20
2017-08-29T21:18:28.453Z,20.20
2017-08-29T21:20:59.739Z,20.20
2017-08-29T21:23:27.601Z,20.10
2017-08-29T21:25:55.083Z,20.10
2017-08-29T21:28:22.551Z,20.10
2017-08-29T21:30:50.031Z,20.00
2017-08-29T21:33:17.504Z,20.00
2017-08-29T21:35:44.988Z,20.00
2017-08-29T21:38:12.448Z,19.90
2017-08-29T21:40:39.933Z,19.90
2017-08-29T21:43:07.400Z,19.80
2017-08-29T21:45:34.879Z,19.80
2017-08-29T21:48:02.351Z,19.70
2017-08-29T21:50:29.839Z,19.60
2017-08-29T21:52:57.311Z,19.60
2017-08-29T21:55:24.780Z,19.60
2017-08-29T21:57:52.260Z,19.50
2017-08-29T22:00:19.736Z,19.50
2017-08-29T22:02:47.211Z,19.50
2017-08-29T22:05:14.692Z,19.40
2017-08-29T22:07:42.166Z,19.40
2017-08-29T22:10:09.639Z,19.40
2017-08-29T22:12:37.119Z,19.30
2017-08-29T22:15:04.591Z,19.30
2017-08-29T22:17:32.068Z,19.10
2017-08-29T22:19:59.533Z,19.00
2017-08-29T22:22:27.007Z,19.00
2017-08-29T22:24:54.475Z,18.90
2017-08-29T22:27:21.957Z,18.90
2017-08-29T22:29:49.423Z,18.90
2017-08-29T22:32:16.903Z,19.00
2017-08-29T22:34:44.682Z,19.00
2017-08-29T22:37:12.205Z,18.90
2017-08-29T22:39:39.677Z,18.90
2017-08-29T22:42:07.151Z,18.90
2017-08-29T22:44:34.636Z,18.90
2017-08-29T22:47:02.126Z,18.90
2017-08-29T22:49:29.597Z,18.90
2017-08-29T22:51:57.209Z,18.90
2017-08-29T22:54:24.703Z,18.90
2017-08-29T22:59:30.220Z,18.80
2017-08-29T23:01:57.684Z,18.80
2017-08-29T23:04:25.164Z,18.70
2017-08-29T23:06:52.628Z,18.70
2017-08-29T23:09:20.104Z,18.60
2017-08-29T23:11:47.580Z,18.60
2017-08-29T23:14:15.055Z,18.60
2017-08-29T23:16:42.523Z,18.70
2017-08-29T23:19:10.772Z,18.50
2017-08-29T23:21:38.244Z,18.50
2017-08-29T23:24:05.720Z,18.50
2017-08-29T23:26:33.187Z,18.50
2017-08-29T23:29:00.659Z,18.50
2017-08-29T23:31:28.132Z,18.40
2017-08-29T23:33:55.611Z,18.30
2017-08-29T23:36:23.079Z,18.30
2017-08-29T23:38:50.561Z,18.40
2017-08-29T23:41:18.028Z,18.40
2017-08-29T23:43:45.487Z,18.40
2017-08-29T23:46:12.967Z,18.40
2017-08-29T23:48:40.435Z,18.40
2017-08-29T23:51:07.915Z,18.40
2017-08-29T23:53:35.380Z,18.40
2017-08-29T23:56:02.859Z,18.40
2017-08-29T23:58:30.327Z,18.40
